createdAt,value
2018-11-23T00:01:18.747Z,23.50
2018-11-23T00:03:59.971Z,24.63
2018-11-23T00:06:41.551Z,24.87
2018-11-23T00:09:23.104Z,23.63
2018-11-23T00:12:04.474Z,24.87
2018-11-23T00:14:45.371Z,24.10
2018-11-23T00:17:26.445Z,24.40
2018-11-23T00:20:07.611Z,23.33
2018-11-23T00:22:48.891Z,22.40
2018-11-23T00:25:30.564Z,22.87
2018-11-23T00:28:12.122Z,23.10
2018-11-23T00:30:53.040Z,24.03
2018-11-23T00:33:34.100Z,23.80
2018-11-23T00:36:15.260Z,24.10
2018-11-23T00:38:57.070Z,22.90
2018-11-23T00:41:38.772Z,24.63
2018-11-23T00:44:20.088Z,22.83
2018-11-23T00:47:01.914Z,24.03
2018-11-23T00:49:43.185Z,22.43
2018-11-23T00:52:24.496Z,23.10
2018-11-23T00:55:05.623Z,23.80
2018-11-23T00:57:46.950Z,24.57
2018-11-23T01:00:34.719Z,23.60
2018-11-23T01:03:16.332Z,24.10
2018-11-23T01:05:57.466Z,24.17
2018-11-23T01:08:38.376Z,22.90
2018-11-23T01:11:19.543Z,25.70
2018-11-23T01:14:00.667Z,23.70
2018-11-23T01:16:42.005Z,23.30
2018-11-23T01:19:23.727Z,23.57
2018-11-23T01:22:05.508Z,22.57
2018-11-23T01:24:46.681Z,22.40
2018-11-23T01:27:27.805Z,23.57
2018-11-23T01:30:09.075Z,20.80
2018-11-23T01:32:50.089Z,24.07
2018-11-23T01:35:31.367Z,21.97
2018-11-23T01:38:12.219Z,21.70
2018-11-23T01:40:53.396Z,23.63
2018-11-23T01:43:34.581Z,24.20
2018-11-23T01:46:15.827Z,21.77
2018-11-23T01:48:56.940Z,21.90
2018-11-23T01:51:37.807Z,23.30
2018-11-23T01:54:19.295Z,21.40
2018-11-23T01:57:00.944Z,21.53
2018-11-23T01:59:42.533Z,19.57
2018-11-23T02:02:23.423Z,21.33
2018-11-23T02:05:05.070Z,22.10
2018-11-23T02:07:46.492Z,20.77
2018-11-23T02:13:11.213Z,23.00
2018-11-23T02:15:52.931Z,22.47
2018-11-23T02:18:33.923Z,21.47
2018-11-23T02:21:14.794Z,21.27
2018-11-23T02:23:55.904Z,22.97
2018-11-23T02:26:36.811Z,20.90
2018-11-23T02:29:18.530Z,20.73
2018-11-23T02:32:00.011Z,21.73
2018-11-23T02:34:41.571Z,21.63
2018-11-23T02:37:22.708Z,23.10
2018-11-23T02:40:03.889Z,23.37
2018-11-23T02:42:45.840Z,21.40
2018-11-23T02:45:27.415Z,19.97
2018-11-23T02:48:08.311Z,21.27
2018-11-23T02:50:50.163Z,21.23
2018-11-23T02:53:31.236Z,21.70
2018-11-23T02:56:12.962Z,22.10
2018-11-23T02:58:53.825Z,20.87
2018-11-23T03:01:35.258Z,21.23
2018-11-23T03:04:16.141Z,20.53
2018-11-23T03:06:57.400Z,21.97
2018-11-23T03:09:38.540Z,21.27
2018-11-23T03:12:19.868Z,21.73
2018-11-23T03:15:00.868Z,20.87
2018-11-23T03:17:42.836Z,20.10
2018-11-23T03:20:24.364Z,22.10
2018-11-23T03:23:05.566Z,22.40
2018-11-23T03:25:47.028Z,19.60
2018-11-23T03:28:28.333Z,21.17
2018-11-23T03:31:12.417Z,20.50
2018-11-23T03:33:51.178Z,20.20
2018-11-23T03:36:32.178Z,20.87
2018-11-23T03:39:13.701Z,18.50
2018-11-23T03:41:54.756Z,20.63
2018-11-23T03:44:35.809Z,19.90
2018-11-23T03:47:17.310Z,19.90
2018-11-23T03:49:58.409Z,20.90
2018-11-23T03:52:40.234Z,19.03
2018-11-23T03:55:21.503Z,19.40
2018-11-23T03:58:03.044Z,19.80
2018-11-23T04:00:43.989Z,19.10
2018-11-23T04:03:25.570Z,20.30
2018-11-23T04:06:06.953Z,21.57
2018-11-23T04:08:48.193Z,18.57
2018-11-23T04:11:28.963Z,19.60
2018-11-23T04:14:10.239Z,19.10
2018-11-23T04:16:51.583Z,20.80
2018-11-23T04:19:32.724Z,20.03
2018-11-23T04:22:14.145Z,22.03
2018-11-23T04:24:55.462Z,19.10
2018-11-23T04:27:36.590Z,19.30
2018-11-23T04:30:18.237Z,21.80
2018-11-23T04:32:59.990Z,21.80
2018-11-23T04:35:41.715Z,21.53
2018-11-23T04:38:23.128Z,20.87
2018-11-23T04:41:04.280Z,21.13
2018-11-23T04:43:45.188Z,20.10
2018-11-23T04:46:26.080Z,19.83
2018-11-23T04:49:07.333Z,21.50
2018-11-23T04:51:48.568Z,21.43
2018-11-23T04:54:29.835Z,21.70
2018-11-23T04:57:11.279Z,20.47
2018-11-23T04:59:52.623Z,19.37
2018-11-23T05:02:33.703Z,20.80
2018-11-23T05:05:15.247Z,21.20
2018-11-23T05:07:56.663Z,20.80
2018-11-23T05:10:37.684Z,20.20
2018-11-23T05:13:18.520Z,21.73
2018-11-23T05:15:59.845Z,19.37
2018-11-23T05:18:40.982Z,20.90
2018-11-23T05:21:22.222Z,20.30
2018-11-23T05:24:03.225Z,22.33
2018-11-23T05:26:45.061Z,20.67
2018-11-23T05:29:25.934Z,20.43
2018-11-23T05:32:07.083Z,19.93
2018-11-23T05:34:48.399Z,20.83
2018-11-23T05:37:29.746Z,21.37
2018-11-23T05:40:11.723Z,20.83
2018-11-23T05:42:52.934Z,20.83
2018-11-23T05:45:34.192Z,20.97
2018-11-23T05:48:15.196Z,19.70
2018-11-23T05:50:56.699Z,19.87
2018-11-23T05:53:38.270Z,19.50
2018-11-23T05:56:20.014Z,18.10
2018-11-23T05:59:01.053Z,17.80
2018-11-23T06:01:42.569Z,20.37
2018-11-23T06:04:23.834Z,20.23
2018-11-23T06:07:04.803Z,21.63
2018-11-23T06:12:29.133Z,20.30
2018-11-23T06:15:10.128Z,20.53
2018-11-23T06:17:51.684Z,20.60
2018-11-23T06:20:33.400Z,20.03
2018-11-23T06:23:14.909Z,20.60
2018-11-23T06:25:56.215Z,21.00
2018-11-23T06:28:37.787Z,39.00
2018-11-23T06:31:21.998Z,39.07
2018-11-23T06:34:26.791Z,22.90
2018-11-23T06:36:55.847Z,21.87
2018-11-23T06:39:24.883Z,22.20
2018-11-23T06:41:54.661Z,20.93
2018-11-23T06:44:29.920Z,21.80
2018-11-23T06:46:59.060Z,22.60
2018-11-23T06:49:28.210Z,21.37
2018-11-23T06:51:57.245Z,21.70
2018-11-23T06:54:26.273Z,19.83
2018-11-23T06:56:55.321Z,21.07
2018-11-23T06:59:25.034Z,22.13
2018-11-23T07:01:54.450Z,20.73
2018-11-23T07:04:23.490Z,20.70
2018-11-23T07:06:53.121Z,20.53
2018-11-23T07:09:22.558Z,21.47
2018-11-23T07:11:51.565Z,20.77
2018-11-23T07:14:21.392Z,21.50
2018-11-23T07:16:51.638Z,22.63
2018-11-23T07:19:20.686Z,23.50
2018-11-23T07:21:50.306Z,22.40
2018-11-23T07:24:19.613Z,22.63
2018-11-23T07:26:48.637Z,23.10
2018-11-23T07:29:17.676Z,25.40
2018-11-23T07:31:47.676Z,23.87
2018-11-23T07:34:16.720Z,24.43
2018-11-23T07:36:45.761Z,23.73
2018-11-23T07:39:26.177Z,23.50
2018-11-23T07:42:13.044Z,23.20
2018-11-23T07:44:42.105Z,22.37
2018-11-23T07:47:11.112Z,31.60
2018-11-23T07:49:40.163Z,26.50
2018-11-23T07:52:09.401Z,27.70
2018-11-23T07:54:38.834Z,28.87
2018-11-23T07:57:09.436Z,27.13
2018-11-23T07:59:38.881Z,26.37
2018-11-23T08:02:09.912Z,25.83
2018-11-23T08:04:40.948Z,25.60
2018-11-23T08:07:11.047Z,25.87
2018-11-23T08:09:40.908Z,24.90
2018-11-23T08:12:10.024Z,26.50
2018-11-23T08:14:39.447Z,25.83
2018-11-23T08:17:08.589Z,24.80
2018-11-23T08:19:37.593Z,23.80
2018-11-23T08:22:06.768Z,23.77
2018-11-23T08:24:35.774Z,26.30
2018-11-23T08:27:04.833Z,25.03
2018-11-23T08:29:33.989Z,23.77
2018-11-23T08:32:03.054Z,22.60
2018-11-23T08:34:32.830Z,22.90
2018-11-23T08:37:01.885Z,25.20
2018-11-23T08:39:32.224Z,23.00
2018-11-23T08:42:01.851Z,23.00
2018-11-23T08:44:30.899Z,23.80
2018-11-23T08:47:00.035Z,24.50
2018-11-23T08:49:29.037Z,24.13
2018-11-23T08:51:58.129Z,23.17
2018-11-23T08:54:27.130Z,24.53
2018-11-23T08:56:56.212Z,24.20
2018-11-23T08:59:25.260Z,25.53
2018-11-23T09:01:54.974Z,25.47
2018-11-23T09:04:23.983Z,25.17
2018-11-23T09:06:53.812Z,23.33
2018-11-23T09:09:22.829Z,22.70
2018-11-23T09:11:51.938Z,22.40
2018-11-23T09:14:21.446Z,23.63
2018-11-23T09:16:50.454Z,23.13
2018-11-23T09:19:19.599Z,25.70
2018-11-23T09:21:48.784Z,24.80
2018-11-23T09:24:17.875Z,24.17
2018-11-23T09:26:46.875Z,26.47
2018-11-23T09:29:16.511Z,24.73
2018-11-23T09:31:45.664Z,24.80
2018-11-23T09:34:15.469Z,24.40
2018-11-23T09:36:44.601Z,23.83
2018-11-23T09:39:13.675Z,24.27
2018-11-23T09:41:42.993Z,23.37
2018-11-23T09:44:12.041Z,23.63
2018-11-23T09:46:41.206Z,22.43
2018-11-23T09:49:10.610Z,22.30
2018-11-23T09:51:39.665Z,23.70
2018-11-23T09:54:08.764Z,22.67
2018-11-23T09:56:37.832Z,22.87
2018-11-23T09:59:06.885Z,23.73
2018-11-23T10:01:35.939Z,21.97
2018-11-23T10:04:05.043Z,25.23
2018-11-23T10:06:34.112Z,23.07
2018-11-23T10:09:03.745Z,23.70
2018-11-23T10:11:33.636Z,22.87
2018-11-23T10:14:02.767Z,21.47
2018-11-23T10:16:31.836Z,21.10
2018-11-23T10:19:01.105Z,22.73
2018-11-23T10:21:30.193Z,22.30
2018-11-23T10:24:00.000Z,22.37
2018-11-23T10:26:29.026Z,23.47
2018-11-23T10:28:58.066Z,22.00
2018-11-23T10:31:27.929Z,22.50
2018-11-23T10:33:57.045Z,22.10
2018-11-23T10:36:26.169Z,22.77
2018-11-23T10:38:55.329Z,23.77
2018-11-23T10:41:24.388Z,22.80
2018-11-23T10:43:53.442Z,22.10
2018-11-23T10:46:22.632Z,23.33
2018-11-23T10:48:51.693Z,22.80
2018-11-23T10:51:20.812Z,24.43
2018-11-23T10:53:49.887Z,23.83
2018-11-23T10:56:18.902Z,23.60
2018-11-23T10:58:47.956Z,25.97
2018-11-23T11:01:22.475Z,23.50
2018-11-23T11:03:57.122Z,24.40
2018-11-23T11:06:31.980Z,24.30
2018-11-23T11:09:01.636Z,22.43
2018-11-23T11:11:30.801Z,24.13
2018-11-23T11:13:59.893Z,24.60
2018-11-23T11:16:28.966Z,24.97
2018-11-23T11:18:58.025Z,23.77
2018-11-23T11:21:27.150Z,22.57
2018-11-23T11:23:56.198Z,23.67
2018-11-23T11:26:25.225Z,21.70
2018-11-23T11:28:54.284Z,23.37
2018-11-23T11:31:23.355Z,21.77
2018-11-23T11:33:52.917Z,21.43
2018-11-23T11:36:22.089Z,22.20
2018-11-23T11:38:51.751Z,23.30
2018-11-23T11:41:20.776Z,23.83
2018-11-23T11:43:49.853Z,20.67
2018-11-23T11:46:19.080Z,22.20
2018-11-23T11:48:48.182Z,22.80
2018-11-23T11:51:17.717Z,22.70
2018-11-23T11:53:48.410Z,23.73
2018-11-23T11:56:17.472Z,21.00
2018-11-23T11:58:47.035Z,21.67
2018-11-23T12:01:16.105Z,21.70
2018-11-23T12:03:45.408Z,21.70
2018-11-23T12:06:15.554Z,21.97
2018-11-23T12:08:44.643Z,20.77
2018-11-23T12:11:13.730Z,22.33
2018-11-23T12:13:43.834Z,19.90
2018-11-23T12:16:12.986Z,22.47
2018-11-23T12:18:42.018Z,20.87
2018-11-23T12:21:11.062Z,22.10
2018-11-23T12:23:40.652Z,22.37
2018-11-23T12:26:09.758Z,22.63
2018-11-23T12:28:38.954Z,21.30
2018-11-23T12:31:08.020Z,22.23
2018-11-23T12:33:37.093Z,22.50
2018-11-23T12:36:06.189Z,21.60
2018-11-23T12:38:35.273Z,20.53
2018-11-23T12:41:05.115Z,21.83
2018-11-23T12:43:34.305Z,21.40
2018-11-23T12:46:03.424Z,20.97
2018-11-23T12:48:33.054Z,20.87
2018-11-23T12:51:02.125Z,20.23
2018-11-23T12:53:31.154Z,19.20
2018-11-23T12:56:00.225Z,20.47
2018-11-23T12:58:29.314Z,21.20
2018-11-23T13:00:58.472Z,22.03
2018-11-23T13:03:27.559Z,22.17
2018-11-23T13:05:57.290Z,22.10
2018-11-23T13:08:26.367Z,19.80
2018-11-23T13:10:55.418Z,21.53
2018-11-23T13:13:24.471Z,19.57
2018-11-23T13:15:54.204Z,20.83
2018-11-23T13:18:23.403Z,21.40
2018-11-23T13:20:52.523Z,21.40
2018-11-23T13:23:21.602Z,19.90
2018-11-23T13:25:51.322Z,20.00
2018-11-23T13:28:20.378Z,20.40
2018-11-23T13:30:49.440Z,19.80
2018-11-23T13:33:18.630Z,19.63
2018-11-23T13:35:47.880Z,19.63
2018-11-23T13:38:16.930Z,19.60
2018-11-23T13:40:46.013Z,20.27
2018-11-23T13:43:15.124Z,20.43
2018-11-23T13:45:44.169Z,20.23
2018-11-23T13:48:19.856Z,20.20
2018-11-23T13:50:43.072Z,20.70
2018-11-23T13:53:12.173Z,20.00
2018-11-23T13:55:41.256Z,20.63
2018-11-23T13:58:10.436Z,21.10
2018-11-23T14:00:39.602Z,20.77
2018-11-23T14:03:08.686Z,20.57
2018-11-23T14:05:37.788Z,19.07
2018-11-23T14:08:07.002Z,22.03
2018-11-23T14:10:36.060Z,20.73
2018-11-23T14:13:11.391Z,21.60
2018-11-23T14:15:34.515Z,21.43
2018-11-23T14:18:03.588Z,22.80
2018-11-23T14:20:33.135Z,22.90
2018-11-23T14:23:02.193Z,22.00
2018-11-23T14:25:32.067Z,21.17
2018-11-23T14:28:01.302Z,23.03
2018-11-23T14:30:32.001Z,22.30
2018-11-23T14:33:02.149Z,22.77
2018-11-23T14:35:32.372Z,23.23
2018-11-23T14:38:02.101Z,24.50
2018-11-23T14:40:31.210Z,25.10
2018-11-23T14:43:00.317Z,22.10
2018-11-23T14:45:31.841Z,21.47
2018-11-23T14:48:02.860Z,22.97
2018-11-23T14:50:33.990Z,23.40
2018-11-23T14:53:03.285Z,24.00
2018-11-23T14:55:32.359Z,23.53
2018-11-23T14:58:01.933Z,25.83
2018-11-23T15:00:34.449Z,23.90
2018-11-23T15:03:04.502Z,25.27
2018-11-23T15:05:33.979Z,23.37
2018-11-23T15:08:03.210Z,25.00
2018-11-23T15:10:33.417Z,24.60
2018-11-23T15:13:03.474Z,24.93
2018-11-23T15:15:34.069Z,25.17
2018-11-23T15:18:03.129Z,25.77
2018-11-23T15:20:33.946Z,25.13
2018-11-23T15:23:07.609Z,26.97
2018-11-23T15:25:36.797Z,25.37
2018-11-23T15:28:06.788Z,25.60
2018-11-23T15:30:38.425Z,24.40
2018-11-23T15:33:08.670Z,24.93
2018-11-23T15:35:38.710Z,27.10
2018-11-23T15:38:10.325Z,25.00
2018-11-23T15:40:38.810Z,25.07
2018-11-23T15:43:09.549Z,26.37
2018-11-23T15:45:39.138Z,24.50
2018-11-23T15:48:09.039Z,25.40
2018-11-23T15:50:39.676Z,25.67
2018-11-23T15:53:10.391Z,26.13
2018-11-23T15:55:40.021Z,26.90
2018-11-23T15:58:10.624Z,27.23
2018-11-23T16:00:40.980Z,27.10
2018-11-23T16:03:11.418Z,27.27
2018-11-23T16:05:40.785Z,27.70
2018-11-23T16:08:14.622Z,26.40
2018-11-23T16:10:43.934Z,27.67
2018-11-23T16:13:13.416Z,37.73
2018-11-23T16:15:43.535Z,29.23
2018-11-23T16:18:13.309Z,27.20
2018-11-23T16:20:44.015Z,26.20
2018-11-23T16:23:14.786Z,27.17
2018-11-23T16:25:44.696Z,29.00
2018-11-23T16:28:14.217Z,28.17
2018-11-23T16:30:45.719Z,28.50
2018-11-23T16:33:16.706Z,27.73
2018-11-23T16:35:45.941Z,29.20
2018-11-23T16:38:16.580Z,29.10
2018-11-23T16:40:47.435Z,31.90
2018-11-23T16:43:16.989Z,27.70
2018-11-23T16:45:46.605Z,37.77
2018-11-23T16:48:16.353Z,35.83
2018-11-23T16:50:46.494Z,32.93
2018-11-23T16:53:15.606Z,31.87
2018-11-23T16:55:44.809Z,31.27
2018-11-23T16:58:14.607Z,32.97
2018-11-23T17:00:45.422Z,29.80
2018-11-23T17:03:16.285Z,29.70
2018-11-23T17:05:48.620Z,30.73
2018-11-23T17:08:17.918Z,29.60
2018-11-23T17:10:47.366Z,30.97
2018-11-23T17:13:16.436Z,30.67
2018-11-23T17:15:47.523Z,28.20
2018-11-23T17:18:16.699Z,26.93
2018-11-23T17:20:46.637Z,31.97
2018-11-23T17:23:15.807Z,27.47
2018-11-23T17:25:45.490Z,30.30
2018-11-23T17:28:14.735Z,29.60
2018-11-23T17:30:44.972Z,30.40
2018-11-23T17:33:15.279Z,32.17
2018-11-23T17:35:45.103Z,31.57
2018-11-23T17:38:14.318Z,30.50
2018-11-23T17:40:43.495Z,32.60
2018-11-23T17:43:12.712Z,32.07
2018-11-23T17:45:41.881Z,30.13
2018-11-23T17:48:11.222Z,30.10
2018-11-23T17:50:40.539Z,31.17
2018-11-23T17:53:10.233Z,30.00
2018-11-23T17:55:39.361Z,31.03
2018-11-23T17:58:08.469Z,29.00
2018-11-23T18:00:39.574Z,30.03
2018-11-23T18:03:07.848Z,28.30
2018-11-23T18:05:37.504Z,28.03
2018-11-23T18:08:06.822Z,28.77
2018-11-23T18:10:36.933Z,28.40
2018-11-23T18:13:06.242Z,31.83
2018-11-23T18:15:35.965Z,41.50
2018-11-23T18:18:06.320Z,40.13
2018-11-23T18:20:35.861Z,35.47
2018-11-23T18:23:05.904Z,29.40
2018-11-23T18:25:38.367Z,33.87
2018-11-23T18:28:07.576Z,35.07
2018-11-23T18:30:37.340Z,36.20
2018-11-23T18:33:07.941Z,34.20
2018-11-23T18:35:37.243Z,34.33
2018-11-23T18:38:06.463Z,30.80
2018-11-23T18:40:37.325Z,33.00
2018-11-23T18:43:05.924Z,31.90
2018-11-23T18:45:35.037Z,33.07
2018-11-23T18:48:04.185Z,33.83
2018-11-23T18:50:33.313Z,34.60
2018-11-23T18:53:03.173Z,32.30
2018-11-23T18:55:33.830Z,34.90
2018-11-23T18:58:03.001Z,31.00
2018-11-23T19:00:32.336Z,35.53
2018-11-23T19:03:01.535Z,34.27
2018-11-23T19:05:30.735Z,36.37
2018-11-23T19:08:00.323Z,35.00
2018-11-23T19:10:29.703Z,33.30
2018-11-23T19:12:59.014Z,36.60
2018-11-23T19:15:28.154Z,35.53
2018-11-23T19:17:57.441Z,34.70
2018-11-23T19:20:26.690Z,33.30
2018-11-23T19:22:55.995Z,36.10
2018-11-23T19:25:25.774Z,35.10
2018-11-23T19:27:54.924Z,37.40
2018-11-23T19:30:28.589Z,36.27
2018-11-23T19:32:54.201Z,37.10
2018-11-23T19:35:23.351Z,37.60
2018-11-23T19:37:55.287Z,35.90
2018-11-23T19:40:24.322Z,36.17
2018-11-23T19:42:53.534Z,33.83
2018-11-23T19:45:23.150Z,32.20
2018-11-23T19:47:52.831Z,35.67
2018-11-23T19:50:21.890Z,33.27
2018-11-23T19:52:51.513Z,33.70
2018-11-23T19:55:21.382Z,35.33
2018-11-23T19:57:50.462Z,34.57
2018-11-23T20:00:22.862Z,32.60
2018-11-23T20:02:52.009Z,40.17
2018-11-23T20:05:21.332Z,36.73
2018-11-23T20:07:52.963Z,29.47
2018-11-23T20:10:22.878Z,30.33
2018-11-23T20:12:53.704Z,29.07
2018-11-23T20:15:23.009Z,26.93
2018-11-23T20:17:52.599Z,27.97
2018-11-23T20:20:22.082Z,31.20
2018-11-23T20:22:51.505Z,29.43
2018-11-23T20:25:22.412Z,30.33
2018-11-23T20:27:52.611Z,31.13
2018-11-23T20:30:23.115Z,30.10
2018-11-23T20:32:52.763Z,28.50
2018-11-23T20:35:23.002Z,28.70
2018-11-23T20:37:53.521Z,29.97
2018-11-23T20:40:23.506Z,28.70
2018-11-23T20:42:53.413Z,28.67
2018-11-23T20:45:22.539Z,29.20
2018-11-23T20:47:51.680Z,30.57
2018-11-23T20:50:20.742Z,30.77
2018-11-23T20:52:50.571Z,28.53
2018-11-23T20:55:21.967Z,27.40
2018-11-23T20:57:51.974Z,28.07
2018-11-23T21:00:22.227Z,30.50
2018-11-23T21:02:52.660Z,30.13
2018-11-23T21:05:22.531Z,30.10
2018-11-23T21:07:51.994Z,29.50
2018-11-23T21:10:23.319Z,29.80
2018-11-23T21:12:53.312Z,33.40
2018-11-23T21:15:26.467Z,33.70
2018-11-23T21:17:56.325Z,29.40
2018-11-23T21:20:25.525Z,33.83
2018-11-23T21:22:55.368Z,31.97
2018-11-23T21:25:24.430Z,32.00
2018-11-23T21:27:53.562Z,28.80
2018-11-23T21:30:23.641Z,30.27
2018-11-23T21:32:54.046Z,30.00
2018-11-23T21:35:24.384Z,31.17
2018-11-23T21:37:54.003Z,28.27
2018-11-23T21:40:23.136Z,29.30
2018-11-23T21:42:52.248Z,30.70
2018-11-23T21:45:21.422Z,28.00
2018-11-23T21:47:51.827Z,28.27
2018-11-23T21:50:25.465Z,28.03
2018-11-23T21:52:50.752Z,28.00
2018-11-23T21:55:24.712Z,28.87
2018-11-23T21:57:55.182Z,29.13
2018-11-23T22:00:24.230Z,28.40
2018-11-23T22:02:53.308Z,26.97
2018-11-23T22:05:22.449Z,28.27
2018-11-23T22:07:53.362Z,30.83
2018-11-23T22:10:22.471Z,28.47
2018-11-23T22:12:52.549Z,29.90
2018-11-23T22:15:22.833Z,30.77
2018-11-23T22:17:53.140Z,30.33
2018-11-23T22:20:23.463Z,35.20
2018-11-23T22:22:52.657Z,30.80
2018-11-23T22:25:22.941Z,27.70
2018-11-23T22:27:52.019Z,28.47
2018-11-23T22:30:28.373Z,29.10
2018-11-23T22:32:57.817Z,30.27
2018-11-23T22:35:27.814Z,29.37
2018-11-23T22:37:56.988Z,32.30
2018-11-23T22:40:26.104Z,31.27
2018-11-23T22:42:56.641Z,29.60
2018-11-23T22:45:26.537Z,28.93
2018-11-23T22:47:55.631Z,27.77
2018-11-23T22:50:25.108Z,30.90
2018-11-23T22:52:55.302Z,29.83
2018-11-23T22:55:25.894Z,28.80
2018-11-23T22:57:54.936Z,28.03
2018-11-23T23:00:31.425Z,29.37
2018-11-23T23:03:00.490Z,27.13
2018-11-23T23:05:29.561Z,28.80
2018-11-23T23:07:58.606Z,28.60
2018-11-23T23:10:27.669Z,39.80
2018-11-23T23:12:56.785Z,27.67
2018-11-23T23:15:25.816Z,27.67
2018-11-23T23:17:55.573Z,27.13
2018-11-23T23:20:24.706Z,27.40
2018-11-23T23:22:53.832Z,27.30
2018-11-23T23:25:22.910Z,30.57
2018-11-23T23:27:52.193Z,27.60
2018-11-23T23:30:21.313Z,33.17
2018-11-23T23:32:50.352Z,29.27
2018-11-23T23:35:19.446Z,29.67
2018-11-23T23:37:48.536Z,27.60
2018-11-23T23:40:18.345Z,26.57
2018-11-23T23:42:47.964Z,25.07
2018-11-23T23:45:18.041Z,27.40
2018-11-23T23:47:47.243Z,27.43
2018-11-23T23:50:19.926Z,25.90
2018-11-23T23:52:49.597Z,25.37
2018-11-23T23:55:18.769Z,24.50
2018-11-23T23:57:48.229Z,27.50
